Latest Weather Observations for Coondewanna

IDW60801

Issued at 6:03 am WST Thursday 29 September 2016 (issued every 30 minutes, with the page automatically refreshed every 10 minutes)

About weather observations | Map of weather stations | Latest weather observations for WA | Other Formats
Station Details ID: 505051 Name: COONDEWANNA Lat: -22.96 Lon: 118.81 Height: 697.63 m
Data from the previous 72 hours. | See also: Recent months for locations in Western Australia
Date/Time
WST
Temp
°C
App
Temp
°C
Dew
Point
°C
Rel
Hum
%
Delta-T
°C
Wind Press
QNH
hPa
Press
MSL
hPa
Rain since
9am
mm
Dir  Spd
km/h
Gust
km/h
Spd
kts
Gust
kts
29/06:00am 12.4 7.8 -7.6 24 7.2 E 9 15 5 8 1017.7 1014.4 0.0
29/05:30am 13.0 7.7 -7.6 23 7.5 E 13 17 7 9 1017.5 1014.2 0.0
29/05:00am 13.3 7.2 -7.4 23 7.6 E 17 24 9 13 1017.2 1013.8 0.0
29/04:30am 13.8 8.6 -6.4 24 7.6 E 13 20 7 11 1016.9 1013.5 0.0
29/04:00am 13.6 9.1 -6.6 24 7.6 ESE 9 11 5 6 1016.5 1013.2 0.0
29/03:30am 14.1 9.6 -6.7 23 7.8 SE 9 11 5 6 1016.4 1013.1 0.0
29/03:00am 14.4 9.9 -7.0 22 8.0 ESE 9 13 5 7 1016.3 1013.0 0.0
29/02:30am 15.0 10.5 -7.1 21 8.3 ESE 9 15 5 8 1016.4 1013.1 0.0
29/02:00am 15.1 10.5 -7.7 20 8.5 SE 9 13 5 7 1016.7 1013.3 0.0
29/01:30am 15.7 11.1 -7.8 19 8.8 ESE 9 15 5 8 1016.7 1013.3 0.0
29/01:00am 15.9 12.2 -8.4 18 9.0 E 4 11 2 6 1016.9 1013.5 0.0
29/12:30am 16.0 11.8 -8.3 18 9.0 E 7 11 4 6 1017.2 1013.8 0.0
29/12:00am 16.6 11.1 -9.3 16 9.5 E 13 15 7 8 1017.3 1014.0 0.0
 
Date/Time
WST
Temp
°C
App
Temp
°C
Dew
Point
°C
Rel
Hum
%
Delta-T
°C
Wind Press
QNH
hPa
Press
MSL
hPa
Rain since
9am
mm
Dir  Spd
km/h
Gust
km/h
Spd
kts
Gust
kts
28/11:30pm 17.0 11.2 -9.0 16 9.6 ESE 15 20 8 11 1017.6 1014.3 0.0
28/11:00pm 16.6 11.1 -9.3 16 9.5 NE 13 15 7 8 1017.9 1014.6 0.0
28/10:30pm 17.7 12.2 -9.2 15 10.0 E 13 17 7 9 1018.0 1014.7 0.0
28/10:00pm 18.8 13.0 -9.2 14 10.5 ESE 15 20 8 11 1018.0 1014.7 0.0
28/09:30pm 20.5 14.6 -9.8 12 11.5 SE 15 24 8 13 1018.0 1014.7 0.0
28/09:00pm 20.5 14.6 -9.8 12 11.5 SSE 15 19 8 10 1017.9 1014.6 0.0
28/08:30pm 21.1 14.9 -9.4 12 11.7 SSE 17 24 9 13 1017.6 1014.3 0.0
28/08:00pm 21.2 15.3 -9.3 12 11.8 SSE 15 19 8 10 1017.4 1014.1 0.0
28/07:30pm 21.8 15.9 -9.9 11 12.2 SSE 15 19 8 10 1017.2 1013.8 0.0
28/07:00pm 22.6 16.1 -8.2 12 12.3 SSE 19 26 10 14 1017.1 1013.7 0.0
28/06:30pm 22.7 17.0 -7.1 13 12.2 SSE 15 19 8 10 1016.7 1013.3 0.0
28/06:00pm 24.3 17.7 -6.9 12 13.0 SSE 20 26 11 14 1016.3 1013.0 0.0
28/05:30pm 25.3 18.8 -8.5 10 13.8 SSE 19 24 10 13 1015.9 1012.5 0.0
28/05:00pm 25.9 19.2 -8.0 10 14.1 SSE 20 30 11 16 1015.5 1012.1 0.0
28/04:30pm 26.2 19.6 -9.1 9 14.4 S 19 26 10 14 1015.2 1011.8 0.0
28/04:00pm 26.2 20.7 -9.1 9 14.4 SE 13 28 7 15 1014.9 1011.6 0.0
28/03:30pm 26.5 19.9 -8.9 9 14.5 SSE 19 24 10 13 1014.9 1011.6 0.0
28/03:00pm 26.7 20.9 -8.8 9 14.6 S 15 24 8 13 1015.0 1011.7 0.0
28/02:30pm 26.3 20.1 -9.1 9 14.4 SSE 17 30 9 16 1015.4 1012.0 0.0
28/02:00pm 26.4 20.7 -7.6 10 14.3 S 15 24 8 13 1015.7 1012.3 0.0
28/01:30pm 26.5 20.4 -7.6 10 14.3 SSW 17 28 9 15 1016.0 1012.7 0.0
28/01:00pm 25.2 18.5 -4.2 14 13.0 S 22 32 12 17 1016.3 1013.0 0.0
28/12:30pm 25.3 19.6 -4.1 14 13.0 S 17 30 9 16 1016.8 1013.4 0.0
28/12:00pm 24.1 18.3 -1.7 18 11.8 S 19 28 10 15 1017.2 1013.8 0.0
28/11:30am 23.6 17.8 -1.3 19 11.5 S 19 32 10 17 1017.6 1014.3 0.0
28/11:00am 22.7 16.9 -0.1 22 10.6 S 20 28 11 15 1017.9 1014.6 0.0
28/10:30am 21.4 15.7 0.6 25 9.8 S 20 30 11 16 1018.0 1014.7 0.0
28/10:00am 21.0 15.3 0.8 26 9.5 S 20 28 11 15 1018.3 1014.9 0.0
28/09:30am 20.0 14.4 1.4 29 8.8 SSW 20 30 11 16 1018.4 1015.0 0.0
28/09:00am 18.9 13.0 1.4 31 8.2 S 22 30 12 16 1018.4 1015.0 0.0
28/08:30am 17.6 11.4 2.0 35 7.3 S 24 32 13 17 1018.3 1014.9 0.0
28/08:00am 16.5 10.7 2.2 38 6.7 SSW 22 30 12 16 1018.3 1014.9 0.0
28/07:30am 16.1 9.8 3.5 43 6.0 S 26 33 14 18 1017.8 1014.5 0.0
28/07:00am 15.6 10.4 3.4 44 5.8 SSW 20 28 11 15 1017.4 1014.1 0.0
28/06:30am 15.1 9.1 3.6 46 5.5 SSW 24 32 13 17 1017.0 1013.6 0.0
28/06:00am 14.2 10.2 2.8 46 5.3 SSW 13 20 7 11 1016.7 1013.3 0.0
28/05:30am 14.6 10.8 1.8 42 5.8 SSW 11 15 6 8 1016.3 1013.0 0.0
28/05:00am 15.8 10.9 1.9 39 6.4 SSW 17 24 9 13 1015.9 1012.5 0.0
28/04:30am 16.2 10.6 1.1 36 6.9 SSW 20 30 11 16 1015.4 1012.0 0.0
28/04:00am 16.1 11.6 -0.2 33 7.2 SSW 13 17 7 9 1015.0 1011.7 0.0
28/03:30am 13.7 9.7 -2.3 33 6.6 SSW 9 13 5 7 1014.9 1011.6 0.0
28/03:00am 15.0 10.9 -3.3 28 7.5 SW 9 11 5 6 1014.6 1011.2 0.0
28/02:30am 15.4 10.9 -3.0 28 7.6 SSW 11 15 6 8 1014.6 1011.2 0.0
28/02:00am 13.0 9.7 -4.6 29 6.9 SSW 4 7 2 4 1014.6 1011.2 0.0
28/01:30am 14.7 10.4 -5.1 25 7.8 SSW 9 11 5 6 1014.7 1011.4 0.0
28/01:00am 16.4 13.1 -4.8 23 8.5 SW 4 9 2 5 1014.7 1011.4 0.0
28/12:30am 18.4 14.5 -4.9 20 9.5 SW 7 9 4 5 1014.7 1011.4 0.0
28/12:00am 19.9 14.1 -5.1 18 10.4 SW 17 20 9 11 1014.6 1011.2 0.0
 
Date/Time
WST
Temp
°C
App
Temp
°C
Dew
Point
°C
Rel
Hum
%
Delta-T
°C
Wind Press
QNH
hPa
Press
MSL
hPa
Rain since
9am
mm
Dir  Spd
km/h
Gust
km/h
Spd
kts
Gust
kts
27/11:30pm 20.8 14.4 -5.1 17 10.8 SW 20 26 11 14 1014.5 1011.1 0.0
27/11:00pm 21.0 15.2 -4.9 17 10.9 SW 17 20 9 11 1014.6 1011.2 0.0
27/10:30pm 21.7 15.8 -5.2 16 11.3 SW 17 22 9 12 1014.6 1011.2 0.0
27/10:00pm 21.6 16.0 -6.1 15 11.4 SW 15 19 8 10 1014.6 1011.2 0.0
27/09:30pm 19.7 15.9 -6.0 17 10.4 SSW 6 9 3 5 1014.5 1011.1 0.0
27/09:00pm 20.8 17.3 -6.7 15 11.1 SSW 4 7 2 4 1014.3 1010.9 0.0
27/08:30pm 23.6 18.4 -6.4 13 12.5 SW 13 17 7 9 1014.0 1010.6 0.0
27/08:00pm 23.6 17.6 -6.4 13 12.6 SW 17 20 9 11 1013.8 1010.4 0.0
27/07:30pm 23.6 18.9 -5.4 14 12.4 WSW 11 13 6 7 1013.5 1010.2 0.0
27/07:00pm 24.9 20.5 -5.4 13 13.1 WSW 9 11 5 6 1013.1 1009.7 0.0
27/06:30pm 26.4 21.6 -6.4 11 14.1 W 11 15 6 8 1012.7 1009.3 0.0
27/06:00pm 28.4 22.8 -6.1 10 15.1 WSW 15 20 8 11 1012.4 1009.0 0.0
27/05:30pm 29.6 23.4 -5.2 10 15.7 W 19 26 10 14 1011.9 1008.5 0.0
27/05:00pm 30.2 23.3 -6.1 9 16.2 WNW 22 30 12 16 1011.8 1008.4 0.0
27/04:30pm 30.7 24.2 -5.8 9 16.4 WNW 20 30 11 16 1011.6 1008.2 0.0
27/04:00pm 31.1 26.0 -5.5 9 16.6 W 13 28 7 15 1011.5 1008.1 0.0
27/03:30pm 30.5 24.3 -4.5 10 16.1 WNW 19 30 10 16 1011.7 1008.3 0.0
27/03:00pm 29.9 25.2 -5.0 10 15.8 NNW 11 19 6 10 1012.1 1008.6 0.0
27/02:30pm 29.6 23.4 -5.2 10 15.7 NW 19 28 10 15 1012.3 1008.9 0.0
27/02:00pm 29.5 24.0 -5.3 10 15.6 NW 15 26 8 14 1012.6 1009.2 0.0
27/01:30pm 29.4 25.0 -5.4 10 15.6 NE 9 24 5 13 1013.0 1009.6 0.0
27/01:00pm 29.2 23.6 -3.1 12 15.0 NNW 17 28 9 15 1013.4 1010.1 0.0
27/12:40pm 29.2 23.6 -3.1 12 15.0 E 17 44 9 24 1013.4 1010.1 0.0
27/12:30pm 28.5 23.7 -2.6 13 14.5 N 13 20 7 11 1013.9 1010.5 0.0
27/12:00pm 27.6 22.7 -3.3 13 14.2 ENE 13 19 7 10 1014.6 1011.2 0.0
27/11:30am 27.1 22.7 -2.7 14 13.7 NE 11 19 6 10 1015.2 1011.8 0.0
27/11:00am 26.3 21.4 -3.3 14 13.4 NNE 13 22 7 12 1015.8 1012.4 0.0
27/10:30am 25.7 19.7 -2.8 15 13.0 ENE 19 30 10 16 1016.1 1012.8 0.0
27/10:00am 25.3 18.7 -3.2 15 12.8 E 22 33 12 18 1016.8 1013.4 0.0
27/09:30am 24.7 18.1 -3.6 15 12.6 E 22 28 12 15 1017.1 1013.7 0.0
27/09:00am 23.4 16.4 -3.8 16 11.9 E 24 33 13 18 1017.2 1013.8 0.0
27/08:30am 22.4 16.6 -4.6 16 11.6 E 17 30 9 16 1017.4 1014.1 0.0
27/08:00am 20.9 16.3 -4.3 18 10.7 ESE 11 17 6 9 1017.4 1014.1 0.0
27/07:30am 19.0 15.4 -3.8 21 9.6 ESE 6 9 3 5 1017.2 1013.8 0.0
27/07:00am 15.3 12.8 -4.1 26 7.8 CALM 0 0 0 0 1016.9 1013.5 0.0
27/06:30am 11.9 9.4 -4.2 32 6.3 CALM 0 0 0 0 1016.7 1013.3 0.0
27/06:00am 10.0 7.3 -5.5 33 5.7 CALM 0 0 0 0 1016.5 1013.2 0.0
27/05:30am 10.9 8.2 -5.5 31 6.1 CALM 0 0 0 0 1016.3 1013.0 0.0
27/05:00am 12.3 9.6 -5.7 28 6.8 CALM 0 0 0 0 1016.1 1012.8 0.0
27/04:30am 13.0 9.0 -5.5 27 7.1 ESE 7 11 4 6 1015.9 1012.5 0.0
27/04:00am 14.1 10.0 -6.7 23 7.8 ESE 7 11 4 6 1015.7 1012.3 0.0
27/03:30am 16.6 11.4 -6.4 20 9.0 ESE 13 19 7 10 1015.7 1012.3 0.0
27/03:00am 17.3 12.5 -5.8 20 9.2 ESE 11 15 6 8 1015.7 1012.3 0.0
27/02:30am 17.7 12.9 -6.2 19 9.5 E 11 17 6 9 1015.7 1012.3 0.0
27/02:00am 17.5 13.1 -5.7 20 9.3 ENE 9 17 5 9 1015.8 1012.4 0.0
27/01:30am 17.7 13.0 -5.5 20 9.3 NE 11 13 6 7 1015.9 1012.5 0.0
27/01:00am 15.7 12.0 -4.8 24 8.2 NE 6 9 3 5 1016.1 1012.8 0.0
27/12:30am 14.9 10.9 -5.5 24 8.0 NNE 7 9 4 5 1016.2 1012.9 0.0
27/12:00am 16.1 12.3 -5.6 22 8.6 NNE 6 9 3 5 1016.4 1013.1 0.0
 
Date/Time
WST
Temp
°C
App
Temp
°C
Dew
Point
°C
Rel
Hum
%
Delta-T
°C
Wind Press
QNH
hPa
Press
MSL
hPa
Rain since
9am
mm
Dir  Spd
km/h
Gust
km/h
Spd
kts
Gust
kts
26/11:30pm 14.7 10.9 -5.6 24 7.9 NE 6 9 3 5 1016.5 1013.2 0.0
26/11:00pm 14.7 10.9 -5.6 24 7.9 SSE 6 11 3 6 1016.8 1013.4 0.0
26/10:30pm 15.4 12.0 -5.6 23 8.2 SSE 4 7 2 4 1017.0 1013.6 0.0
26/10:00pm 15.5 11.7 -5.5 23 8.2 SSE 6 9 3 5 1017.1 1013.7 0.0
26/09:30pm 16.4 12.4 -6.0 21 8.8 SSE 7 11 4 6 1017.2 1013.8 0.0
26/09:00pm 19.6 15.2 -6.1 17 10.4 SSE 9 11 5 6 1016.9 1013.5 0.0
26/08:30pm 21.2 16.4 -6.4 15 11.3 SSE 11 15 6 8 1016.7 1013.3 0.0
26/08:00pm 21.9 16.7 -5.9 15 11.5 SSE 13 15 7 8 1016.4 1013.1 0.0
26/07:30pm 21.6 16.4 -6.1 15 11.4 SSE 13 13 7 7 1016.1 1012.8 0.0
26/07:00pm 22.7 17.5 -6.1 14 12.0 SSE 13 15 7 8 1015.7 1012.3 0.0
26/06:30pm 23.9 19.0 -7.2 12 12.8 SSE 11 13 6 7 1015.4 1012.0 0.0
26/06:00pm 25.5 19.8 -7.1 11 13.7 SSE 15 24 8 13 1014.9 1011.6 0.0
26/05:30pm 26.2 20.5 -7.8 10 14.2 SE 15 20 8 11 1014.6 1011.2 0.0
26/05:00pm 26.4 21.1 -7.6 10 14.3 SSE 13 20 7 11 1014.2 1010.8 0.0
26/04:30pm 27.2 21.2 -7.0 10 14.6 SE 17 24 9 13 1014.0 1010.6 0.0
26/04:00pm 26.9 21.2 -7.2 10 14.5 SSE 15 24 8 13 1013.8 1010.4 0.0
26/03:30pm 27.5 21.1 -6.8 10 14.7 ESE 19 26 10 14 1013.8 1010.4 0.0
26/03:00pm 27.2 21.3 -5.8 11 14.4 ESE 17 33 9 18 1013.5 1010.2 0.0
26/02:30pm 27.3 20.7 -6.9 10 14.7 SE 20 32 11 17 1013.7 1010.3 0.0
26/02:25pm 26.7 20.4 -6.2 11 14.2 ESE 19 32 10 17 1013.8 1010.4 0.0
26/02:06pm 27.0 20.5 -5.9 11 14.3 ESE 20 30 11 16 1013.9 1010.5 0.0
26/02:00pm 28.0 21.1 -6.4 10 15.0 SE 22 32 12 17 1013.9 1010.5 0.0
26/01:30pm 26.5 21.0 -5.2 12 13.9 S 15 22 8 12 1014.1 1010.7 0.0
26/01:00pm 25.6 19.7 -5.9 12 13.5 SE 17 28 9 15 1014.5 1011.1 0.0
26/12:30pm 25.1 18.3 -5.2 13 13.1 SE 22 32 12 17 1014.8 1011.5 0.0
26/12:00pm 25.0 18.6 -5.3 13 13.1 SSE 20 30 11 16 1015.3 1011.9 0.0
26/11:30am 24.4 17.5 -5.8 13 12.9 SE 22 39 12 21 1015.9 1012.5 0.0
26/11:00am 22.9 15.3 -6.0 14 12.1 SE 26 39 14 21 1016.3 1013.0 0.0
26/10:30am 22.5 14.9 -5.4 15 11.8 SSE 26 33 14 18 1016.5 1013.2 0.0
26/10:00am 21.7 13.8 -5.2 16 11.3 SE 28 41 15 22 1016.9 1013.5 0.0
26/09:30am 20.9 13.4 -5.0 17 10.9 SE 26 37 14 20 1017.1 1013.7 0.0
26/09:00am 20.6 12.6 -5.3 17 10.7 SE 28 35 15 19 1017.2 1013.8 0.0
26/08:30am 19.2 11.7 -5.0 19 10.0 SE 26 35 14 19 1017.1 1013.7 0.0
26/08:05am 18.2 10.2 -5.8 19 9.6 SE 28 46 15 25 1017.0 1013.6 0.0
26/08:00am 18.0 10.8 -5.3 20 9.4 SE 24 39 13 21 1017.0 1013.6 0.0
26/07:30am 16.7 11.2 -5.7 21 8.9 ESE 15 30 8 16 1016.7 1013.3 0.0
26/07:00am 16.3 10.8 -5.4 22 8.6 E 15 22 8 12 1016.1 1012.8 0.0
26/06:30am 16.3 8.7 -6.0 21 8.7 ESE 26 43 14 23 1015.6 1012.2 0.0

Other Formats:

Comma delimited format used in spreadsheet applications
http://www.bom.gov.au/fwo/IDW60801/IDW60801.99312.axf

JavaScript Object Notation format (JSON) in row-major order
http://www.bom.gov.au/fwo/IDW60801/IDW60801.99312.json